createdAt,value
2023-05-02T00:00:51.363Z,7.71
2023-05-02T00:03:18.459Z,7.71
2023-05-02T00:05:45.416Z,7.66
2023-05-02T00:08:12.716Z,7.63
2023-05-02T00:10:39.545Z,7.59
2023-05-02T00:13:06.420Z,7.54
2023-05-02T00:15:33.114Z,7.54
2023-05-02T00:18:00.457Z,7.60
2023-05-02T00:20:27.218Z,7.67
2023-05-02T00:22:55.961Z,7.74
2023-05-02T00:25:22.917Z,7.74
2023-05-02T00:27:51.023Z,7.71
2023-05-02T00:30:18.450Z,7.73
2023-05-02T00:32:45.300Z,7.60
2023-05-02T00:35:12.134Z,7.46
2023-05-02T00:37:39.107Z,7.55
2023-05-02T00:40:07.990Z,7.57
2023-05-02T00:42:36.308Z,7.60
2023-05-02T00:45:06.366Z,7.56
2023-05-02T00:47:33.843Z,7.59
2023-05-02T00:50:01.537Z,7.45
2023-05-02T00:52:29.058Z,7.35
2023-05-02T00:54:56.147Z,7.15
2023-05-02T00:57:23.197Z,6.95
2023-05-02T00:59:51.021Z,6.97
2023-05-02T01:02:31.440Z,6.77
2023-05-02T01:05:17.854Z,7.03
2023-05-02T01:07:58.548Z,7.15
2023-05-02T01:10:43.337Z,7.16
2023-05-02T01:13:13.906Z,7.13
2023-05-02T01:15:42.166Z,7.11
2023-05-02T01:18:12.182Z,7.22
2023-05-02T01:20:44.506Z,7.23
2023-05-02T01:23:30.877Z,7.17
2023-05-02T01:26:21.244Z,7.13
2023-05-02T01:28:59.682Z,6.82
2023-05-02T01:31:31.249Z,6.79
2023-05-02T01:34:00.100Z,7.07
2023-05-02T01:36:31.106Z,7.15
2023-05-02T01:39:00.125Z,7.18
2023-05-02T01:41:29.021Z,7.21
2023-05-02T01:44:00.480Z,7.19
2023-05-02T01:46:31.440Z,7.17
2023-05-02T01:49:01.460Z,7.10
2023-05-02T01:51:31.865Z,7.10
2023-05-02T01:54:07.356Z,7.07
2023-05-02T01:56:36.862Z,7.04
2023-05-02T01:59:08.287Z,7.04
2023-05-02T02:01:37.953Z,7.11
2023-05-02T02:04:07.210Z,7.01
2023-05-02T02:06:34.154Z,7.03
2023-05-02T02:09:01.638Z,7.06
2023-05-02T02:11:35.735Z,7.12
2023-05-02T02:14:10.832Z,7.04
2023-05-02T02:16:41.529Z,7.10
2023-05-02T02:19:10.962Z,7.13
2023-05-02T02:21:38.580Z,7.05
2023-05-02T02:24:06.744Z,6.92
2023-05-02T02:26:34.060Z,7.04
2023-05-02T02:29:01.363Z,7.00
2023-05-02T02:31:32.653Z,7.00
2023-05-02T02:34:00.676Z,6.89
2023-05-02T02:36:31.592Z,6.84
2023-05-02T02:39:39.837Z,6.90
2023-05-02T02:42:28.132Z,6.90
2023-05-02T02:45:36.472Z,6.90
2023-05-02T02:48:20.634Z,6.90
2023-05-02T02:50:53.446Z,6.91
2023-05-02T02:53:26.445Z,6.88
2023-05-02T02:55:58.375Z,6.64
2023-05-02T02:58:46.276Z,6.58
2023-05-02T03:01:19.835Z,6.47
2023-05-02T03:03:48.640Z,6.56
2023-05-02T03:06:19.114Z,6.56
2023-05-02T03:08:45.773Z,6.48
2023-05-02T03:11:12.493Z,6.40
2023-05-02T03:13:39.140Z,6.22
2023-05-02T03:16:32.903Z,6.22
2023-05-02T03:18:59.775Z,6.26
2023-05-02T03:21:26.488Z,6.16
2023-05-02T03:23:53.202Z,6.15
2023-05-02T03:26:19.882Z,6.01
2023-05-02T03:28:46.912Z,5.83
2023-05-02T03:31:14.794Z,5.93
2023-05-02T03:33:41.512Z,5.89
2023-05-02T03:36:08.700Z,5.94
2023-05-02T03:38:35.390Z,5.94
2023-05-02T03:41:03.009Z,5.94
2023-05-02T03:43:31.201Z,5.92
2023-05-02T03:45:58.477Z,5.75
2023-05-02T03:48:25.384Z,5.61
2023-05-02T03:50:52.008Z,5.57
2023-05-02T03:53:18.749Z,5.66
2023-05-02T03:55:45.873Z,5.73
2023-05-02T03:58:12.501Z,5.34
2023-05-02T04:00:39.788Z,5.43
2023-05-02T04:03:07.208Z,5.54
2023-05-02T04:05:34.134Z,5.39
2023-05-02T04:08:01.352Z,5.39
2023-05-02T04:10:27.993Z,5.31
2023-05-02T04:12:54.687Z,5.11
2023-05-02T04:15:21.406Z,5.34
2023-05-02T04:17:48.114Z,5.47
2023-05-02T04:20:15.844Z,5.45
2023-05-02T04:22:42.501Z,5.42
2023-05-02T04:25:09.407Z,5.32
2023-05-02T04:27:36.073Z,5.28
2023-05-02T04:30:03.605Z,5.22
2023-05-02T04:32:30.643Z,5.42
2023-05-02T04:34:57.366Z,5.32
2023-05-02T04:37:25.125Z,5.48
2023-05-02T04:39:51.889Z,5.16
2023-05-02T04:42:18.737Z,4.79
2023-05-02T04:44:45.475Z,5.03
2023-05-02T04:47:12.165Z,5.46
2023-05-02T04:49:38.816Z,5.67
2023-05-02T04:52:06.303Z,5.83
2023-05-02T04:54:34.763Z,5.96
2023-05-02T04:57:03.570Z,5.97
2023-05-02T04:59:30.371Z,6.13
2023-05-02T05:01:57.366Z,6.07
2023-05-02T05:04:24.879Z,6.27
2023-05-02T05:06:51.662Z,6.43
2023-05-02T05:09:18.309Z,6.54
2023-05-02T05:11:46.259Z,6.59
2023-05-02T05:14:13.009Z,6.66
2023-05-02T05:16:39.830Z,6.73
2023-05-02T05:19:06.714Z,6.90
2023-05-02T05:21:33.529Z,7.11
2023-05-02T05:24:00.389Z,7.24
2023-05-02T05:26:27.232Z,7.30
2023-05-02T05:28:55.057Z,7.42
2023-05-02T05:31:22.722Z,7.65
2023-05-02T05:33:49.477Z,7.83
2023-05-02T05:36:16.216Z,7.88
2023-05-02T05:38:43.043Z,8.02
2023-05-02T05:41:10.558Z,8.15
2023-05-02T05:43:38.413Z,8.23
2023-05-02T05:46:05.495Z,8.45
2023-05-02T05:48:32.236Z,8.72
2023-05-02T05:51:02.992Z,8.79
2023-05-02T05:53:29.640Z,8.88
2023-05-02T05:55:56.228Z,8.88
2023-05-02T05:58:22.798Z,8.81
2023-05-02T06:00:50.609Z,8.89
2023-05-02T06:03:17.403Z,9.29
2023-05-02T06:05:44.038Z,9.32
2023-05-02T06:08:10.704Z,9.15
2023-05-02T06:10:37.421Z,8.95
2023-05-02T06:13:04.124Z,9.14
2023-05-02T06:15:33.594Z,8.93
2023-05-02T06:18:00.728Z,9.28
2023-05-02T06:20:27.501Z,9.74
2023-05-02T06:22:54.205Z,10.15
2023-05-02T06:25:21.050Z,10.83
2023-05-02T06:27:47.680Z,10.69
2023-05-02T06:30:14.406Z,11.47
2023-05-02T06:32:44.017Z,10.12
2023-05-02T06:35:11.827Z,9.46
2023-05-02T06:37:38.557Z,9.40
2023-05-02T06:40:05.704Z,9.86
2023-05-02T06:42:32.425Z,10.98
2023-05-02T06:44:59.149Z,10.81
2023-05-02T06:47:26.346Z,10.39
2023-05-02T06:49:53.809Z,10.35
2023-05-02T06:52:20.535Z,12.01
2023-05-02T06:54:47.287Z,11.06
2023-05-02T06:57:13.984Z,10.32
2023-05-02T06:59:40.798Z,11.52
2023-05-02T07:02:08.157Z,12.07
2023-05-02T07:04:34.795Z,12.43
2023-05-02T07:07:01.592Z,12.38
2023-05-02T07:09:28.311Z,12.08
2023-05-02T07:11:54.965Z,12.25
2023-05-02T07:14:21.761Z,11.81
2023-05-02T07:16:48.644Z,11.38
2023-05-02T07:19:15.577Z,11.17
2023-05-02T07:21:42.224Z,11.17
2023-05-02T07:24:08.850Z,10.06
2023-05-02T07:26:35.664Z,9.84
2023-05-02T07:29:02.382Z,9.96
2023-05-02T07:31:29.215Z,10.73
2023-05-02T07:33:55.866Z,10.80
2023-05-02T07:36:22.685Z,12.27
2023-05-02T07:38:49.359Z,12.53
2023-05-02T07:41:16.179Z,13.29
2023-05-02T07:43:42.830Z,13.07
2023-05-02T07:46:09.622Z,14.18
2023-05-02T07:48:36.392Z,15.39
2023-05-02T07:51:08.136Z,14.16
2023-05-02T07:53:35.261Z,14.53
2023-05-02T07:56:06.123Z,14.80
2023-05-02T07:58:32.910Z,16.22
2023-05-02T08:00:59.581Z,16.63
2023-05-02T08:03:26.869Z,15.54
2023-05-02T08:05:53.919Z,15.80
2023-05-02T08:08:20.729Z,16.45
2023-05-02T08:10:47.480Z,16.24
2023-05-02T08:13:14.303Z,16.15
2023-05-02T08:15:41.096Z,15.34
2023-05-02T08:18:07.961Z,15.77
2023-05-02T08:20:34.903Z,17.21
2023-05-02T08:23:01.530Z,18.80
2023-05-02T08:25:28.255Z,19.69
2023-05-02T08:27:54.900Z,18.83
2023-05-02T08:30:21.609Z,18.84
2023-05-02T08:32:48.383Z,19.81
2023-05-02T08:35:15.387Z,16.82
2023-05-02T08:37:42.034Z,17.31
2023-05-02T08:40:12.389Z,21.46
2023-05-02T08:42:43.066Z,21.46
2023-05-02T08:45:14.058Z,24.04
2023-05-02T08:47:42.319Z,23.11
2023-05-02T08:50:13.723Z,23.03
2023-05-02T08:52:41.064Z,20.34
2023-05-02T08:55:08.211Z,21.99
2023-05-02T08:57:34.914Z,22.32
2023-05-02T09:00:01.859Z,21.77
2023-05-02T09:02:55.750Z,20.63
2023-05-02T09:05:25.181Z,20.17
2023-05-02T09:07:52.216Z,19.29
2023-05-02T09:10:19.190Z,18.11
2023-05-02T09:12:45.856Z,20.26
2023-05-02T09:15:14.810Z,20.67
2023-05-02T09:17:43.846Z,21.68
2023-05-02T09:20:15.690Z,18.79
2023-05-02T09:22:50.973Z,19.62
2023-05-02T09:25:19.463Z,18.49
2023-05-02T09:28:04.388Z,18.30
2023-05-02T09:30:31.180Z,18.46
2023-05-02T09:32:57.958Z,18.37
2023-05-02T09:35:24.930Z,18.99
2023-05-02T09:37:58.589Z,19.50
2023-05-02T09:40:25.716Z,19.48
2023-05-02T09:42:52.725Z,19.45
2023-05-02T09:45:26.683Z,17.97
2023-05-02T09:47:53.762Z,17.22
2023-05-02T09:50:36.939Z,17.69
2023-05-02T09:53:06.199Z,18.95
2023-05-02T09:55:32.907Z,20.27
2023-05-02T09:58:00.920Z,21.37
2023-05-02T10:00:45.067Z,23.18
2023-05-02T10:03:16.428Z,24.68
2023-05-02T10:05:45.291Z,24.95
2023-05-02T10:08:12.863Z,25.53
2023-05-02T10:10:41.373Z,25.81
2023-05-02T10:13:09.052Z,23.45
2023-05-02T10:15:41.532Z,21.19
2023-05-02T10:18:16.065Z,18.60
2023-05-02T10:20:56.404Z,20.94
2023-05-02T10:23:26.145Z,18.22
2023-05-02T10:25:53.282Z,19.50
2023-05-02T10:28:20.566Z,18.45
2023-05-02T10:30:49.727Z,16.24
2023-05-02T10:33:17.416Z,17.63
2023-05-02T10:35:45.678Z,17.58
2023-05-02T10:38:21.678Z,18.73
2023-05-02T10:40:56.924Z,18.84
2023-05-02T10:43:25.867Z,19.74
2023-05-02T10:45:54.045Z,19.33
2023-05-02T10:48:22.723Z,20.46
2023-05-02T10:50:55.151Z,19.77
2023-05-02T10:53:25.515Z,18.60
2023-05-02T10:56:26.414Z,19.33
2023-05-02T10:59:27.888Z,19.58
2023-05-02T11:01:54.648Z,21.47
2023-05-02T11:04:21.358Z,20.06
2023-05-02T11:06:56.928Z,19.81
2023-05-02T11:09:23.690Z,18.76
2023-05-02T11:11:52.656Z,18.95
2023-05-02T11:14:31.154Z,19.73
2023-05-02T11:17:00.418Z,18.51
2023-05-02T11:19:53.709Z,17.20
2023-05-02T11:22:28.096Z,17.47
2023-05-02T11:24:54.873Z,17.58
2023-05-02T11:27:30.770Z,16.63
2023-05-02T11:29:58.804Z,16.57
2023-05-02T11:32:49.583Z,16.76
2023-05-02T11:35:23.786Z,16.64
2023-05-02T11:38:03.966Z,17.04
2023-05-02T11:40:31.846Z,15.86
2023-05-02T11:42:59.934Z,17.60
2023-05-02T11:45:36.976Z,16.41
2023-05-02T11:48:07.409Z,16.17
2023-05-02T11:50:44.070Z,17.06
2023-05-02T11:53:18.214Z,16.69
2023-05-02T11:55:57.353Z,16.18
2023-05-02T11:58:26.386Z,16.78
2023-05-02T12:00:53.635Z,17.71
2023-05-02T12:03:22.426Z,17.37
2023-05-02T12:05:49.705Z,15.69
2023-05-02T12:08:27.432Z,15.34
2023-05-02T12:10:56.079Z,16.89
2023-05-02T12:13:25.509Z,18.16
2023-05-02T12:15:54.591Z,16.07
2023-05-02T12:18:23.923Z,15.63
2023-05-02T12:20:52.737Z,16.38
2023-05-02T12:23:21.541Z,14.90
2023-05-02T12:25:49.252Z,16.08
2023-05-02T12:28:18.554Z,17.12
2023-05-02T12:30:48.305Z,15.83
2023-05-02T12:33:16.760Z,16.44
2023-05-02T12:35:43.876Z,15.17
2023-05-02T12:38:15.972Z,14.30
2023-05-02T12:40:53.510Z,15.36
2023-05-02T12:43:22.019Z,16.12
2023-05-02T12:45:49.526Z,14.49
2023-05-02T12:48:26.835Z,15.65
2023-05-02T12:50:55.413Z,15.77
2023-05-02T12:53:41.619Z,15.40
2023-05-02T12:56:08.790Z,15.68
2023-05-02T12:58:48.491Z,16.36
2023-05-02T13:01:15.723Z,16.71
2023-05-02T13:03:43.677Z,17.12
2023-05-02T13:06:11.185Z,17.31
2023-05-02T13:08:38.006Z,17.13
2023-05-02T13:11:05.093Z,16.95
2023-05-02T13:13:32.696Z,17.07
2023-05-02T13:15:59.500Z,17.12
2023-05-02T13:18:28.119Z,17.17
2023-05-02T13:20:55.014Z,16.85
2023-05-02T13:23:21.823Z,16.74
2023-05-02T13:25:48.637Z,17.06
2023-05-02T13:28:15.395Z,17.39
2023-05-02T13:30:42.268Z,17.44
2023-05-02T13:33:09.314Z,16.75
2023-05-02T13:35:36.123Z,16.47
2023-05-02T13:38:03.463Z,16.77
2023-05-02T13:40:30.498Z,17.30
2023-05-02T13:42:57.579Z,17.36
2023-05-02T13:45:24.257Z,16.95
2023-05-02T13:47:51.001Z,17.04
2023-05-02T13:50:17.684Z,17.43
2023-05-02T13:52:45.111Z,16.76
2023-05-02T13:55:12.734Z,17.00
2023-05-02T13:57:39.463Z,17.05
2023-05-02T14:00:09.654Z,16.81
2023-05-02T14:02:36.929Z,17.42
2023-05-02T14:05:03.736Z,17.05
2023-05-02T14:07:30.518Z,16.90
2023-05-02T14:09:57.297Z,17.51
2023-05-02T14:12:24.036Z,17.82
2023-05-02T14:14:50.706Z,17.01
2023-05-02T14:17:17.464Z,17.69
2023-05-02T14:19:44.146Z,17.11
2023-05-02T14:22:10.800Z,17.11
2023-05-02T14:24:37.469Z,17.36
2023-05-02T14:27:04.809Z,17.67
2023-05-02T14:29:31.489Z,17.06
2023-05-02T14:31:58.146Z,16.71
2023-05-02T14:34:26.908Z,16.44
2023-05-02T14:36:53.663Z,16.75
2023-05-02T14:39:20.403Z,16.44
2023-05-02T14:41:47.069Z,16.89
2023-05-02T14:44:13.841Z,16.81
2023-05-02T14:46:40.662Z,16.71
2023-05-02T14:49:07.521Z,16.35
2023-05-02T14:51:34.212Z,16.06
2023-05-02T14:54:01.444Z,16.08
2023-05-02T14:56:28.184Z,16.44
2023-05-02T14:58:54.853Z,16.31
2023-05-02T15:01:22.591Z,16.45
2023-05-02T15:04:05.278Z,16.50
2023-05-02T15:06:34.419Z,16.76
2023-05-02T15:09:01.838Z,17.05
2023-05-02T15:11:28.547Z,16.10
2023-05-02T15:13:56.786Z,15.97
2023-05-02T15:16:26.959Z,16.40
2023-05-02T15:18:54.163Z,16.18
2023-05-02T15:21:21.224Z,16.43
2023-05-02T15:23:47.972Z,16.44
2023-05-02T15:26:14.693Z,16.53
2023-05-02T15:28:41.478Z,16.55
2023-05-02T15:31:08.310Z,16.05
2023-05-02T15:33:35.008Z,16.29
2023-05-02T15:36:01.712Z,16.29
2023-05-02T15:38:28.407Z,15.87
2023-05-02T15:40:57.058Z,15.87
2023-05-02T15:43:24.386Z,15.88
2023-05-02T15:45:52.793Z,15.86
2023-05-02T15:48:19.722Z,16.03
2023-05-02T15:50:47.513Z,15.84
2023-05-02T15:53:17.817Z,16.13
2023-05-02T15:55:46.323Z,16.10
2023-05-02T15:58:13.713Z,16.19
2023-05-02T16:00:40.383Z,16.01
2023-05-02T16:03:07.202Z,15.69
2023-05-02T16:05:34.649Z,15.97
2023-05-02T16:08:01.380Z,15.77
2023-05-02T16:10:28.244Z,15.70
2023-05-02T16:12:54.891Z,15.91
2023-05-02T16:15:22.025Z,15.81
2023-05-02T16:17:49.884Z,15.73
2023-05-02T16:20:17.764Z,16.06
2023-05-02T16:22:48.452Z,16.26
2023-05-02T16:25:16.565Z,16.29
2023-05-02T16:27:43.544Z,15.74
2023-05-02T16:30:10.961Z,15.56
2023-05-02T16:32:38.113Z,15.50
2023-05-02T16:35:07.431Z,15.28
2023-05-02T16:37:35.362Z,15.40
2023-05-02T16:40:05.244Z,14.94
2023-05-02T16:42:32.587Z,15.62
2023-05-02T16:44:59.469Z,15.55
2023-05-02T16:47:26.903Z,15.65
2023-05-02T16:50:00.556Z,15.53
2023-05-02T16:52:28.084Z,15.22
2023-05-02T16:54:55.470Z,15.11
2023-05-02T16:57:22.160Z,15.46
2023-05-02T16:59:50.148Z,15.95
2023-05-02T17:02:17.886Z,15.55
2023-05-02T17:04:44.896Z,15.09
2023-05-02T17:07:12.277Z,15.12
2023-05-02T17:09:40.804Z,14.86
2023-05-02T17:12:11.217Z,14.63
2023-05-02T17:14:40.426Z,15.15
2023-05-02T17:17:07.109Z,14.93
2023-05-02T17:19:33.940Z,14.74
2023-05-02T17:22:01.482Z,14.80
2023-05-02T17:24:29.975Z,14.50
2023-05-02T17:26:56.947Z,14.56
2023-05-02T17:29:23.750Z,14.34
2023-05-02T17:31:50.518Z,13.84
2023-05-02T17:34:17.359Z,13.91
2023-05-02T17:36:44.898Z,14.10
2023-05-02T17:39:13.446Z,14.16
2023-05-02T17:41:40.233Z,14.11
2023-05-02T17:44:07.020Z,13.96
2023-05-02T17:46:33.837Z,13.97
2023-05-02T17:49:00.950Z,13.92
2023-05-02T17:51:28.089Z,13.96
2023-05-02T17:53:55.044Z,13.93
2023-05-02T17:56:21.952Z,13.58
2023-05-02T17:58:48.727Z,13.55
2023-05-02T18:01:15.584Z,13.38
2023-05-02T18:03:42.568Z,13.19
2023-05-02T18:06:15.211Z,13.00
2023-05-02T18:08:42.052Z,12.91
2023-05-02T18:11:14.593Z,12.74
2023-05-02T18:13:41.249Z,12.63
2023-05-02T18:16:08.071Z,12.53
2023-05-02T18:18:36.374Z,12.44
2023-05-02T18:21:03.693Z,12.41
2023-05-02T18:23:30.523Z,12.28
2023-05-02T18:25:57.300Z,12.26
2023-05-02T18:28:24.064Z,12.23
2023-05-02T18:30:51.025Z,12.17
2023-05-02T18:33:17.633Z,12.01
2023-05-02T18:35:48.310Z,12.06
2023-05-02T18:38:15.810Z,11.46
2023-05-02T18:40:43.032Z,11.32
2023-05-02T18:43:09.807Z,11.37
2023-05-02T18:45:36.523Z,11.22
2023-05-02T18:48:03.568Z,11.27
2023-05-02T18:50:30.378Z,11.25
2023-05-02T18:52:57.042Z,11.26
2023-05-02T18:55:25.235Z,11.32
2023-05-02T18:57:52.310Z,11.26
2023-05-02T19:00:20.180Z,11.22
2023-05-02T19:02:47.676Z,11.14
2023-05-02T19:05:14.947Z,11.06
2023-05-02T19:07:42.259Z,10.87
2023-05-02T19:10:10.938Z,10.76
2023-05-02T19:12:38.096Z,10.44
2023-05-02T19:15:06.678Z,10.30
2023-05-02T19:17:33.572Z,10.22
2023-05-02T19:20:00.389Z,10.10
2023-05-02T19:22:27.695Z,10.10
2023-05-02T19:24:54.659Z,9.97
2023-05-02T19:27:21.321Z,9.95
2023-05-02T19:29:47.997Z,9.95
2023-05-02T19:32:15.025Z,9.95
2023-05-02T19:34:42.113Z,9.91
2023-05-02T19:37:08.862Z,9.88
2023-05-02T19:39:35.562Z,9.80
2023-05-02T19:42:03.265Z,9.72
2023-05-02T19:44:30.183Z,9.65
2023-05-02T19:46:56.877Z,9.59
2023-05-02T19:49:23.585Z,9.52
2023-05-02T19:51:50.474Z,9.51
2023-05-02T19:54:17.190Z,9.48
2023-05-02T19:56:44.344Z,9.46
2023-05-02T19:59:11.135Z,9.45
2023-05-02T20:01:37.865Z,9.44
2023-05-02T20:04:04.746Z,9.39
2023-05-02T20:06:32.270Z,9.34
2023-05-02T20:08:59.214Z,9.31
2023-05-02T20:11:26.216Z,9.29
2023-05-02T20:13:54.263Z,9.26
2023-05-02T20:16:21.218Z,9.20
2023-05-02T20:18:48.055Z,9.16
2023-05-02T20:21:15.008Z,9.17
2023-05-02T20:23:43.370Z,9.13
2023-05-02T20:26:10.174Z,9.11
2023-05-02T20:28:37.763Z,9.09
2023-05-02T20:31:04.604Z,9.06
2023-05-02T20:33:43.914Z,8.96
2023-05-02T20:36:13.424Z,8.86
2023-05-02T20:38:42.494Z,8.80
2023-05-02T20:41:12.613Z,8.68
2023-05-02T20:43:41.528Z,8.68
2023-05-02T20:46:12.741Z,8.64
2023-05-02T20:48:39.635Z,8.59
2023-05-02T20:51:06.724Z,8.52
2023-05-02T20:53:33.489Z,8.34
2023-05-02T20:56:03.214Z,8.20
2023-05-02T20:58:29.852Z,8.12
2023-05-02T21:00:56.507Z,8.11
2023-05-02T21:03:23.314Z,8.08
2023-05-02T21:05:59.498Z,8.08
2023-05-02T21:08:26.171Z,8.00
2023-05-02T21:10:53.278Z,8.00
2023-05-02T21:13:20.081Z,7.97
2023-05-02T21:15:46.870Z,7.94
2023-05-02T21:18:13.718Z,7.89
2023-05-02T21:20:41.570Z,7.73
2023-05-02T21:23:11.246Z,7.70
2023-05-02T21:25:38.527Z,7.65
2023-05-02T21:28:06.008Z,7.60
2023-05-02T21:30:33.081Z,7.54
2023-05-02T21:32:59.927Z,7.52
2023-05-02T21:35:27.437Z,7.46
2023-05-02T21:37:54.120Z,7.39
2023-05-02T21:40:20.742Z,7.39
2023-05-02T21:42:47.445Z,7.35
2023-05-02T21:45:14.314Z,7.31
2023-05-02T21:47:41.126Z,7.18
2023-05-02T21:50:08.043Z,7.14
2023-05-02T21:52:34.929Z,7.14
2023-05-02T21:55:01.715Z,7.11
2023-05-02T21:57:29.027Z,7.12
2023-05-02T21:59:55.781Z,7.11
2023-05-02T22:02:23.781Z,7.12
2023-05-02T22:04:50.838Z,7.12
2023-05-02T22:07:17.571Z,7.02
2023-05-02T22:09:44.312Z,6.98
2023-05-02T22:12:11.122Z,6.98
2023-05-02T22:14:44.958Z,6.97
2023-05-02T22:17:12.740Z,6.99
2023-05-02T22:19:39.888Z,7.02
2023-05-02T22:22:06.700Z,7.13
2023-05-02T22:24:33.788Z,7.20
2023-05-02T22:27:00.514Z,7.28
2023-05-02T22:29:27.187Z,7.31
2023-05-02T22:31:53.899Z,7.34
2023-05-02T22:34:20.689Z,7.32
2023-05-02T22:36:47.312Z,7.30
2023-05-02T22:39:15.761Z,7.24
2023-05-02T22:41:42.871Z,7.16
2023-05-02T22:44:09.838Z,7.11
2023-05-02T22:46:38.099Z,7.09
2023-05-02T22:49:10.413Z,7.05
2023-05-02T22:51:42.771Z,6.99
2023-05-02T22:54:10.283Z,6.93
2023-05-02T22:56:37.045Z,6.89
2023-05-02T22:59:03.673Z,6.91
2023-05-02T23:01:30.416Z,6.86
2023-05-02T23:03:57.337Z,6.80
2023-05-02T23:06:24.115Z,6.75
2023-05-02T23:08:50.854Z,6.69
2023-05-02T23:11:17.564Z,6.35
2023-05-02T23:13:44.314Z,6.32
2023-05-02T23:16:11.070Z,6.35
2023-05-02T23:18:37.763Z,6.35
2023-05-02T23:21:04.846Z,6.37
2023-05-02T23:23:31.559Z,6.37
2023-05-02T23:25:58.455Z,6.32
2023-05-02T23:28:26.083Z,6.27
2023-05-02T23:30:53.616Z,6.15
2023-05-02T23:33:20.476Z,6.16
2023-05-02T23:35:47.443Z,6.11
2023-05-02T23:38:14.118Z,6.09
2023-05-02T23:40:40.817Z,6.06
2023-05-02T23:43:07.609Z,6.07
2023-05-02T23:45:34.436Z,6.03
2023-05-02T23:48:01.229Z,5.96
2023-05-02T23:50:27.886Z,5.89
2023-05-02T23:52:54.488Z,5.90
2023-05-02T23:55:21.164Z,5.88
2023-05-02T23:57:47.803Z,5.83
